Terminal Aerodrome Forecast
Issued by NWS Duluth, MN

Home | Current Version | Previous Version | Text Only | Print | Product List | Glossary On
Versions: 1 2 3 4 5 6 7 8 9 10 11 12 13 14 15 16 17 18 19
000
FTUS43 KDLH 291000 AAB
TAFINL
TAF AMD
KINL 291000Z 2910/3006 31005KT P6SM -SHRA SCT005 OVC008
      TEMPO 2910/2912 OVC005
     FM291400 33010G18KT P6SM OVC015
     FM291800 33012G22KT P6SM SCT030 BKN200
     FM300100 34010KT P6SM SKC=

USA.gov is the U.S. government's official web portal to all federal, state and local government web resources and services.